Time;durP1;ratioP1;P1;durP2;ratioP2;P2;SDS_P1;SDS_P2;PMS_P1;PMS_P2;Temp;Humidity;BMP_temperature;BMP_pressure;BME280_temperature;BME280_humidity;BME280_pressure;Samples;Min_cycle;Max_cycle;Signal;HPM_P1;HPM_P2
2023/07/27 00:01:07;;;;;;;1.67;1.20;;;12.00;99.90;;;;;;5069445;28;20224;-80
2023/07/27 00:03:36;;;;;;;1.63;1.00;;;12.00;99.90;;;;;;5070073;28;20302;-80
2023/07/27 00:06:02;;;;;;;1.70;0.90;;;12.00;99.90;;;;;;5072068;28;20273;-80
2023/07/27 00:08:29;;;;;;;2.07;1.00;;;12.00;99.90;;;;;;5069833;28;20311;-80
2023/07/27 00:10:56;;;;;;;1.90;1.20;;;11.90;99.90;;;;;;5057105;28;20809;-79
2023/07/27 00:13:23;;;;;;;1.47;1.00;;;11.90;99.90;;;;;;5071158;28;20280;-79
2023/07/27 00:15:50;;;;;;;2.13;1.10;;;12.00;99.90;;;;;;5056497;28;20649;-79
2023/07/27 00:18:16;;;;;;;2.27;1.13;;;11.90;99.90;;;;;;5056454;28;20260;-79
2023/07/27 00:20:45;;;;;;;1.93;1.00;;;11.90;99.90;;;;;;5071207;28;20302;-79
2023/07/27 00:23:12;;;;;;;3.00;0.97;;;11.90;99.90;;;;;;5071017;28;20218;-79
2023/07/27 00:25:39;;;;;;;1.80;1.00;;;11.90;99.90;;;;;;5068322;28;21148;-80
2023/07/27 00:28:06;;;;;;;1.30;0.83;;;11.90;99.90;;;;;;5070494;28;20264;-80
2023/07/27 00:30:32;;;;;;;0.80;0.73;;;11.90;99.90;;;;;;5052108;28;20245;-80
2023/07/27 00:32:59;;;;;;;1.57;0.80;;;11.90;99.90;;;;;;5068459;28;20219;-79
2023/07/27 00:35:26;;;;;;;2.43;0.90;;;11.90;99.90;;;;;;5051314;28;20238;-79
2023/07/27 00:37:54;;;;;;;1.53;1.00;;;11.90;99.90;;;;;;5059081;28;20219;-80
2023/07/27 00:40:21;;;;;;;1.57;1.00;;;11.90;99.90;;;;;;5054236;28;20916;-79
2023/07/27 00:42:47;;;;;;;1.23;1.00;;;11.90;99.90;;;;;;5052806;28;20257;-80
2023/07/27 00:45:14;;;;;;;1.73;0.80;;;11.90;99.90;;;;;;5053296;28;20631;-80
2023/07/27 00:47:41;;;;;;;1.20;1.10;;;11.90;99.90;;;;;;5075739;28;20221;-81
2023/07/27 00:50:08;;;;;;;2.07;1.20;;;11.90;99.90;;;;;;5069649;28;20232;-80
2023/07/27 00:52:35;;;;;;;2.27;1.10;;;11.90;99.90;;;;;;5071061;28;20306;-81
2023/07/27 00:55:03;;;;;;;1.60;1.10;;;11.90;99.90;;;;;;5068388;28;20254;-81
2023/07/27 00:57:30;;;;;;;1.60;1.13;;;11.90;99.90;;;;;;5051134;28;20232;-81
2023/07/27 00:59:57;;;;;;;3.50;1.50;;;11.90;99.90;;;;;;5047783;28;20276;-81
2023/07/27 01:02:24;;;;;;;2.03;1.50;;;11.90;99.90;;;;;;5051541;28;20239;-80
2023/07/27 01:04:51;;;;;;;1.67;1.30;;;11.90;99.90;;;;;;5066736;28;20259;-80
2023/07/27 01:07:18;;;;;;;3.17;1.40;;;11.90;99.90;;;;;;5077734;28;20843;-81
2023/07/27 01:09:44;;;;;;;2.50;1.50;;;11.90;99.90;;;;;;5045174;28;20335;-81
2023/07/27 01:12:21;;;;;;;1.90;1.50;;;11.90;99.90;;;;;;5072722;28;20808;-82
2023/07/27 01:14:58;;;;;;;3.37;1.50;;;11.90;99.90;;;;;;5048576;28;20316;-81
2023/07/27 01:17:31;;;;;;;3.03;1.60;;;12.00;99.90;;;;;;5068887;28;20887;-81
2023/07/27 01:20:20;;;;;;;2.20;1.80;;;12.00;99.90;;;;;;5070550;28;20222;-81
2023/07/27 01:23:22;;;;;;;2.33;1.80;;;12.00;99.90;;;;;;5051706;28;20319;-80
2023/07/27 01:26:04;;;;;;;1.97;1.77;;;12.00;99.90;;;;;;5065434;28;20685;-81
2023/07/27 01:28:48;;;;;;;4.70;1.90;;;12.00;99.90;;;;;;5045072;28;20307;-80
2023/07/27 01:31:21;;;;;;;2.10;1.80;;;12.00;99.90;;;;;;5065502;28;20236;-80
2023/07/27 01:33:58;;;;;;;2.73;2.00;;;12.00;99.90;;;;;;5046028;28;20235;-80
2023/07/27 01:36:28;;;;;;;2.43;2.00;;;12.00;99.90;;;;;;5063087;28;20247;-80
2023/07/27 01:38:59;;;;;;;5.00;2.13;;;11.90;99.90;;;;;;5064853;28;20854;-80
2023/07/27 01:41:28;;;;;;;2.47;1.90;;;11.90;99.90;;;;;;5050298;28;20246;-80
2023/07/27 01:43:56;;;;;;;3.93;2.00;;;11.90;99.90;;;;;;5062281;28;20221;-80
2023/07/27 01:46:25;;;;;;;2.77;1.80;;;11.90;99.90;;;;;;5048164;28;20728;-80
2023/07/27 01:48:54;;;;;;;2.43;1.93;;;11.80;99.90;;;;;;5051070;28;20326;-80
2023/07/27 01:51:22;;;;;;;4.13;1.90;;;11.80;99.90;;;;;;5046810;28;20307;-80
2023/07/27 01:53:50;;;;;;;3.23;2.33;;;11.80;99.90;;;;;;5069302;28;20230;-80
2023/07/27 01:56:18;;;;;;;3.43;2.30;;;11.70;99.90;;;;;;5069431;28;20724;-82
2023/07/27 01:58:46;;;;;;;4.50;2.37;;;11.70;99.90;;;;;;5065162;28;20288;-81
2023/07/27 02:01:13;;;;;;;3.10;2.30;;;11.60;99.90;;;;;;5066286;28;20233;-81
2023/07/27 02:03:41;;;;;;;4.20;2.63;;;11.60;99.90;;;;;;5059710;28;20246;-80
2023/07/27 02:06:11;;;;;;;3.90;2.60;;;11.60;99.90;;;;;;5068909;28;20227;-80
2023/07/27 02:08:37;;;;;;;3.20;2.50;;;11.50;99.90;;;;;;5056765;28;20281;-80
2023/07/27 02:11:06;;;;;;;4.10;2.60;;;11.40;99.90;;;;;;5053552;28;20227;-80
2023/07/27 02:13:38;;;;;;;4.90;2.73;;;11.40;99.90;;;;;;5049632;28;20226;-80
2023/07/27 02:16:12;;;;;;;5.63;2.70;;;11.40;99.90;;;;;;5051798;28;20286;-81
2023/07/27 02:18:43;;;;;;;3.83;3.00;;;11.30;99.90;;;;;;5069376;28;20307;-81
2023/07/27 02:21:10;;;;;;;3.50;2.90;;;11.30;99.90;;;;;;5040798;28;20222;-80
2023/07/27 02:23:39;;;;;;;3.40;3.10;;;11.30;99.90;;;;;;5057363;28;20222;-80
2023/07/27 02:26:06;;;;;;;3.43;2.90;;;11.20;99.90;;;;;;5061024;28;20249;-79
2023/07/27 02:28:34;;;;;;;4.23;3.27;;;11.20;99.90;;;;;;5070096;28;20233;-80
2023/07/27 02:31:01;;;;;;;5.97;3.43;;;11.10;99.90;;;;;;5064519;28;20317;-80
2023/07/27 02:33:28;;;;;;;4.43;3.13;;;11.10;99.90;;;;;;5057119;28;20229;-80
2023/07/27 02:35:56;;;;;;;7.33;4.10;;;11.10;99.90;;;;;;5046925;28;20235;-80
2023/07/27 02:38:23;;;;;;;4.43;3.30;;;11.10;99.90;;;;;;5048510;28;20840;-80
2023/07/27 02:40:50;;;;;;;7.70;3.50;;;11.00;99.90;;;;;;5073762;28;20230;-79
2023/07/27 02:43:18;;;;;;;6.47;3.87;;;11.00;99.90;;;;;;5049020;28;20229;-80
2023/07/27 02:45:44;;;;;;;5.20;3.70;;;11.00;99.90;;;;;;5050031;28;20231;-80
2023/07/27 02:48:11;;;;;;;4.07;3.67;;;10.90;99.90;;;;;;5066562;28;20255;-79
2023/07/27 02:50:38;;;;;;;4.73;3.83;;;10.90;99.90;;;;;;5069690;28;20224;-79
2023/07/27 02:53:11;;;;;;;7.57;4.20;;;10.90;99.90;;;;;;5048708;28;20674;-80
2023/07/27 02:55:41;;;;;;;5.27;3.90;;;10.80;99.90;;;;;;5046383;28;20211;-79
2023/07/27 02:58:08;;;;;;;4.87;3.70;;;10.80;99.90;;;;;;5069369;28;20215;-79
2023/07/27 03:00:37;;;;;;;6.90;3.87;;;10.80;99.90;;;;;;5052494;28;21854;-79
2023/07/27 03:03:06;;;;;;;6.20;3.93;;;10.80;99.90;;;;;;5059274;28;20741;-80
2023/07/27 03:05:33;;;;;;;5.27;3.93;;;10.70;99.90;;;;;;5053994;28;20309;-80
2023/07/27 03:07:59;;;;;;;5.13;3.87;;;10.70;99.90;;;;;;5065270;28;20247;-80
2023/07/27 03:10:35;;;;;;;8.30;4.30;;;10.60;99.90;;;;;;5055047;28;20222;-80
2023/07/27 03:13:01;;;;;;;5.83;3.87;;;10.60;99.90;;;;;;5053508;28;20250;-80
2023/07/27 03:15:28;;;;;;;7.73;4.53;;;10.60;99.90;;;;;;5071680;28;20215;-80
2023/07/27 03:17:55;;;;;;;7.27;4.60;;;10.60;99.90;;;;;;5054888;28;20245;-80
2023/07/27 03:20:21;;;;;;;5.80;4.27;;;10.60;99.90;;;;;;5052883;28;20307;-79
2023/07/27 03:22:49;;;;;;;9.50;4.37;;;10.50;99.90;;;;;;5075267;28;20903;-80
2023/07/27 03:25:16;;;;;;;7.17;4.43;;;10.50;99.90;;;;;;5067268;28;20800;-80
2023/07/27 03:27:45;;;;;;;6.80;4.00;;;10.50;99.90;;;;;;5056877;28;20221;-80
2023/07/27 03:30:12;;;;;;;7.13;4.73;;;10.50;99.90;;;;;;5073055;28;20215;-80
2023/07/27 03:32:39;;;;;;;10.30;5.03;;;10.50;99.90;;;;;;5071335;28;20723;-80
2023/07/27 03:35:06;;;;;;;7.50;4.70;;;10.50;99.90;;;;;;5074040;28;20229;-79
2023/07/27 03:37:33;;;;;;;8.87;5.10;;;10.50;99.90;;;;;;5074124;28;20338;-80
2023/07/27 03:40:00;;;;;;;7.73;4.43;;;10.50;99.90;;;;;;5072732;28;20455;-80
2023/07/27 03:42:27;;;;;;;9.70;4.77;;;10.50;99.90;;;;;;5071806;28;20621;-79
2023/07/27 03:44:55;;;;;;;6.53;4.57;;;10.50;99.90;;;;;;5070967;28;20274;-80
2023/07/27 03:47:22;;;;;;;6.53;4.90;;;10.50;99.90;;;;;;5062782;28;20276;-81
2023/07/27 03:49:48;;;;;;;6.60;4.80;;;10.50;99.90;;;;;;5053373;28;20221;-80
2023/07/27 03:52:15;;;;;;;11.27;6.20;;;10.50;99.90;;;;;;5068524;28;20242;-80
2023/07/27 03:54:42;;;;;;;6.77;4.70;;;10.50;99.90;;;;;;5053259;28;20234;-80
2023/07/27 03:57:09;;;;;;;9.17;5.80;;;10.50;99.90;;;;;;5050231;28;20247;-79
2023/07/27 03:59:35;;;;;;;8.17;6.10;;;10.50;99.90;;;;;;5046182;28;20978;-78
2023/07/27 04:02:04;;;;;;;8.93;5.40;;;10.50;99.90;;;;;;5064572;28;20233;-78
2023/07/27 04:04:31;;;;;;;8.40;5.90;;;10.50;99.90;;;;;;5052984;28;20217;-78
2023/07/27 04:06:58;;;;;;;11.33;6.37;;;10.60;99.90;;;;;;5046667;28;20746;-78
2023/07/27 04:09:25;;;;;;;10.20;5.90;;;10.60;99.90;;;;;;5059838;28;20241;-78
2023/07/27 04:11:52;;;;;;;9.63;5.47;;;10.70;99.90;;;;;;5062761;28;20249;-78
2023/07/27 04:14:19;;;;;;;8.47;5.67;;;10.70;99.90;;;;;;5044875;28;20250;-79
2023/07/27 04:16:46;;;;;;;9.17;5.87;;;10.80;99.90;;;;;;5059804;28;20681;-79
2023/07/27 04:19:14;;;;;;;9.13;6.23;;;10.80;99.90;;;;;;5047591;28;20964;-78
2023/07/27 04:21:41;;;;;;;9.53;6.13;;;10.90;99.90;;;;;;5060068;28;20233;-77
2023/07/27 04:24:08;;;;;;;8.07;6.10;;;10.90;99.90;;;;;;5057073;28;20248;-79
2023/07/27 04:26:36;;;;;;;6.77;5.53;;;11.00;99.90;;;;;;5060823;28;20239;-78
2023/07/27 04:29:02;;;;;;;8.30;6.23;;;11.10;99.90;;;;;;5044731;28;20261;-77
2023/07/27 04:31:29;;;;;;;8.33;6.10;;;11.10;99.90;;;;;;5050277;28;20218;-78
2023/07/27 04:33:56;;;;;;;15.07;6.43;;;11.20;99.90;;;;;;5046384;28;20240;-79
2023/07/27 04:36:25;;;;;;;10.03;6.53;;;11.20;99.90;;;;;;5048874;28;20311;-77
2023/07/27 04:38:52;;;;;;;8.50;6.17;;;11.30;99.90;;;;;;5047113;28;20296;-81
2023/07/27 04:41:19;;;;;;;11.80;6.10;;;11.40;99.90;;;;;;5063709;28;20361;-79
2023/07/27 04:43:45;;;;;;;10.13;6.67;;;11.40;99.90;;;;;;5042897;28;20247;-79
2023/07/27 04:46:12;;;;;;;10.37;6.70;;;11.50;99.90;;;;;;5060956;28;20778;-77
2023/07/27 04:48:39;;;;;;;11.03;6.03;;;11.50;99.90;;;;;;5042315;28;20631;-77
2023/07/27 04:51:06;;;;;;;11.30;6.43;;;11.60;99.90;;;;;;5052093;28;20249;-77
2023/07/27 04:53:34;;;;;;;8.90;6.10;;;11.60;99.90;;;;;;5047767;28;20219;-77
2023/07/27 04:56:01;;;;;;;6.97;5.83;;;11.60;99.90;;;;;;5047126;28;20237;-78
2023/07/27 04:58:28;;;;;;;8.83;6.13;;;11.70;99.90;;;;;;5061718;28;20233;-77
2023/07/27 05:00:56;;;;;;;10.77;6.40;;;11.70;99.90;;;;;;5063119;28;20235;-77
2023/07/27 05:03:23;;;;;;;9.50;6.00;;;11.80;99.90;;;;;;5060831;28;20215;-77
2023/07/27 05:05:49;;;;;;;9.40;6.40;;;11.80;99.90;;;;;;5043702;28;20219;-76
2023/07/27 05:08:16;;;;;;;9.17;6.40;;;11.90;99.90;;;;;;5059992;28;20223;-78
2023/07/27 05:10:44;;;;;;;11.17;7.20;;;12.00;99.90;;;;;;5062837;28;20831;-82
2023/07/27 05:13:11;;;;;;;10.10;6.83;;;12.00;99.90;;;;;;5062184;28;20281;-78
2023/07/27 05:15:41;;;;;;;8.67;6.17;;;12.10;99.90;;;;;;5056110;28;20277;-76
2023/07/27 05:18:08;;;;;;;7.77;6.47;;;12.20;99.90;;;;;;5061074;28;20723;-78
2023/07/27 05:20:35;;;;;;;7.20;6.30;;;12.20;99.90;;;;;;5060035;28;20217;-78
2023/07/27 05:23:01;;;;;;;11.03;7.00;;;12.30;99.90;;;;;;5059263;28;20318;-78
2023/07/27 05:25:28;;;;;;;11.30;6.90;;;12.40;99.90;;;;;;5063726;28;20243;-78
2023/07/27 05:27:56;;;;;;;10.00;6.73;;;12.50;99.90;;;;;;5061690;28;20227;-78
2023/07/27 05:30:23;;;;;;;10.57;7.47;;;12.50;99.90;;;;;;5045525;28;20252;-78
2023/07/27 05:32:50;;;;;;;13.53;7.83;;;12.60;99.90;;;;;;5045276;28;20230;-78
2023/07/27 05:35:17;;;;;;;9.70;7.10;;;12.60;99.90;;;;;;5064811;28;20226;-78
2023/07/27 05:37:46;;;;;;;11.00;7.70;;;12.70;99.90;;;;;;5058654;28;20227;-78
2023/07/27 05:40:14;;;;;;;10.00;7.27;;;12.70;99.90;;;;;;5061531;28;20826;-78
2023/07/27 05:42:40;;;;;;;8.77;6.77;;;12.70;99.90;;;;;;5065250;28;20221;-78
2023/07/27 05:45:10;;;;;;;10.47;7.27;;;12.70;99.90;;;;;;5062432;28;20226;-78
2023/07/27 05:47:36;;;;;;;10.37;7.93;;;12.70;99.90;;;;;;5050970;28;20218;-78
2023/07/27 05:50:03;;;;;;;11.63;7.77;;;12.70;99.90;;;;;;5064580;28;20241;-78
2023/07/27 05:52:30;;;;;;;9.83;7.03;;;12.70;99.90;;;;;;5063777;28;20322;-79
2023/07/27 05:54:57;;;;;;;14.07;8.87;;;12.70;99.90;;;;;;5062113;28;20291;-78
2023/07/27 05:57:24;;;;;;;17.97;11.27;;;12.80;99.90;;;;;;5047415;28;20300;-78
2023/07/27 05:59:51;;;;;;;13.33;9.53;;;12.80;99.90;;;;;;5063486;28;20218;-78
2023/07/27 06:02:19;;;;;;;10.33;8.20;;;12.90;99.90;;;;;;5048203;28;20254;-78
2023/07/27 06:04:46;;;;;;;8.97;7.23;;;13.00;99.90;;;;;;5062275;28;20222;-79
2023/07/27 06:07:13;;;;;;;10.27;7.83;;;13.00;99.90;;;;;;5066841;28;20594;-79
2023/07/27 06:09:40;;;;;;;10.60;7.87;;;13.10;99.90;;;;;;5049518;28;20290;-79
2023/07/27 06:12:11;;;;;;;10.47;7.50;;;13.20;99.90;;;;;;5050926;28;20237;-78
2023/07/27 06:14:38;;;;;;;9.27;7.13;;;13.30;99.90;;;;;;5065977;28;20274;-79
2023/07/27 06:17:05;;;;;;;11.87;7.40;;;13.40;99.90;;;;;;5048168;28;20779;-79
2023/07/27 06:19:33;;;;;;;10.27;7.30;;;13.40;99.90;;;;;;5063409;28;20251;-80
2023/07/27 06:22:00;;;;;;;8.87;6.90;;;13.40;99.90;;;;;;5066962;28;20598;-80
2023/07/27 06:24:26;;;;;;;13.50;7.43;;;13.50;99.90;;;;;;5064835;28;20293;-78
2023/07/27 06:26:53;;;;;;;8.83;6.97;;;13.50;99.90;;;;;;5060414;28;20229;-79
2023/07/27 06:29:20;;;;;;;8.80;6.93;;;13.60;99.90;;;;;;5062411;28;21559;-80
2023/07/27 06:31:46;;;;;;;9.63;7.00;;;13.60;99.90;;;;;;5041689;28;20227;-78
2023/07/27 06:34:13;;;;;;;8.43;6.20;;;13.70;99.90;;;;;;5065622;28;20218;-79
2023/07/27 06:36:41;;;;;;;7.77;6.73;;;13.80;99.90;;;;;;5063616;28;20237;-78
2023/07/27 06:39:08;;;;;;;9.27;6.47;;;13.80;99.90;;;;;;5066346;28;20274;-80
2023/07/27 06:41:35;;;;;;;8.23;6.40;;;13.90;99.90;;;;;;5071907;28;20240;-78
2023/07/27 06:44:02;;;;;;;9.40;6.60;;;13.90;99.90;;;;;;5055632;28;20228;-78
2023/07/27 06:46:29;;;;;;;9.30;6.87;;;13.90;99.90;;;;;;5063101;28;20236;-78
2023/07/27 06:48:55;;;;;;;6.80;6.10;;;13.90;99.90;;;;;;5051340;28;20238;-78
2023/07/27 06:51:23;;;;;;;11.03;6.37;;;13.90;99.90;;;;;;5064215;28;20229;-79
2023/07/27 06:53:51;;;;;;;9.13;6.40;;;13.90;99.90;;;;;;5064946;28;20320;-79
2023/07/27 06:56:18;;;;;;;8.47;6.03;;;13.90;99.90;;;;;;5067308;28;20231;-79
2023/07/27 06:58:45;;;;;;;7.67;6.23;;;13.90;99.90;;;;;;5065439;28;20235;-79
2023/07/27 07:01:11;;;;;;;9.90;6.73;;;13.90;99.90;;;;;;5073973;28;20217;-78
2023/07/27 07:03:38;;;;;;;10.07;6.50;;;14.00;99.90;;;;;;5068516;28;20312;-78
2023/07/27 07:06:05;;;;;;;9.30;5.90;;;14.00;99.90;;;;;;5050483;28;20233;-79
2023/07/27 07:08:31;;;;;;;10.80;6.50;;;14.00;99.90;;;;;;5061946;28;20785;-78
2023/07/27 07:10:59;;;;;;;7.87;5.97;;;14.10;99.90;;;;;;5065837;28;20738;-78
2023/07/27 07:13:26;;;;;;;9.57;6.47;;;14.10;99.90;;;;;;5068035;28;20231;-78
2023/07/27 07:15:53;;;;;;;9.53;5.53;;;14.20;99.90;;;;;;5068863;28;20222;-78
2023/07/27 07:18:20;;;;;;;10.30;5.90;;;14.30;99.90;;;;;;5053339;28;20228;-79
2023/07/27 07:20:47;;;;;;;8.50;5.87;;;14.40;99.90;;;;;;5062882;28;20230;-78
2023/07/27 07:23:14;;;;;;;9.27;6.07;;;14.40;99.90;;;;;;5065477;28;20232;-79
2023/07/27 07:25:41;;;;;;;7.13;5.60;;;14.50;99.90;;;;;;5064786;28;20242;-79
2023/07/27 07:28:09;;;;;;;7.97;5.70;;;14.60;99.90;;;;;;5059568;28;20238;-78
2023/07/27 07:30:38;;;;;;;8.30;5.93;;;14.60;99.90;;;;;;5066525;28;20338;-79
2023/07/27 07:33:05;;;;;;;7.27;5.70;;;14.60;99.90;;;;;;5067395;28;20217;-78
2023/07/27 07:35:34;;;;;;;6.63;5.30;;;14.60;99.90;;;;;;5064238;28;20721;-78
2023/07/27 07:38:01;;;;;;;9.40;6.03;;;14.60;99.90;;;;;;5064503;28;20222;-78
2023/07/27 07:40:28;;;;;;;6.83;5.50;;;14.60;99.90;;;;;;5066421;28;20232;-79
2023/07/27 07:42:55;;;;;;;9.70;6.23;;;14.60;99.90;;;;;;5065531;28;20249;-79
2023/07/27 07:45:23;;;;;;;9.63;6.70;;;14.60;99.90;;;;;;5052713;28;20230;-79
2023/07/27 07:47:50;;;;;;;8.47;5.93;;;14.60;99.90;;;;;;5041176;28;20314;-78
2023/07/27 07:50:17;;;;;;;9.47;5.73;;;14.50;99.90;;;;;;5057118;28;20219;-80
2023/07/27 07:52:44;;;;;;;8.83;5.27;;;14.50;99.90;;;;;;5061090;28;20310;-79
2023/07/27 07:55:11;;;;;;;7.27;5.83;;;14.40;99.90;;;;;;5056052;28;20223;-79
2023/07/27 07:57:38;;;;;;;7.90;5.30;;;14.40;99.90;;;;;;5064447;28;20234;-79
2023/07/27 08:00:06;;;;;;;8.83;5.70;;;14.40;99.90;;;;;;5065916;28;20602;-78
2023/07/27 08:02:42;;;;;;;7.07;5.07;;;14.40;99.90;;;;;;5066288;28;20221;-79
2023/07/27 08:05:09;;;;;;;7.53;5.20;;;14.40;99.90;;;;;;5065544;28;20226;-79
2023/07/27 08:07:36;;;;;;;9.47;5.77;;;14.40;99.90;;;;;;5067891;28;20234;-80
2023/07/27 08:10:03;;;;;;;7.30;5.53;;;14.40;99.90;;;;;;5062087;28;20236;-79
2023/07/27 08:12:29;;;;;;;6.37;5.67;;;14.40;99.90;;;;;;5066339;28;20249;-78
2023/07/27 08:14:56;;;;;;;9.07;5.93;;;14.50;99.90;;;;;;5067118;28;20225;-78
2023/07/27 08:17:23;;;;;;;8.00;5.33;;;14.50;99.90;;;;;;5070201;28;20230;-79
2023/07/27 08:19:51;;;;;;;7.93;5.80;;;14.50;99.90;;;;;;5043553;28;20225;-79
2023/07/27 08:22:20;;;;;;;9.97;6.10;;;14.60;99.90;;;;;;5052620;28;20238;-77
2023/07/27 08:24:47;;;;;;;7.53;5.67;;;14.70;99.90;;;;;;5049566;28;20225;-78
2023/07/27 08:27:15;;;;;;;7.87;5.93;;;14.70;99.90;;;;;;5065655;28;20287;-78
2023/07/27 08:29:42;;;;;;;6.93;5.73;;;14.80;99.90;;;;;;5065325;28;20305;-80
2023/07/27 08:32:08;;;;;;;7.33;5.50;;;14.90;99.90;;;;;;5054089;28;20237;-79
2023/07/27 08:34:35;;;;;;;8.40;5.33;;;15.00;99.90;;;;;;5066400;28;20232;-79
2023/07/27 08:37:03;;;;;;;7.00;4.87;;;15.10;99.90;;;;;;5067855;28;20222;-79
2023/07/27 08:39:30;;;;;;;7.90;5.50;;;15.20;99.90;;;;;;5067016;28;20302;-79
2023/07/27 08:41:57;;;;;;;6.17;5.47;;;15.40;99.90;;;;;;5064374;28;20870;-79
2023/07/27 08:44:24;;;;;;;6.93;5.23;;;15.50;99.90;;;;;;5071847;28;20237;-80
2023/07/27 08:46:51;;;;;;;8.33;5.63;;;15.60;99.90;;;;;;5066262;28;20245;-78
2023/07/27 08:49:19;;;;;;;8.13;5.30;;;15.80;99.90;;;;;;5064097;28;20219;-80
2023/07/27 08:51:46;;;;;;;7.87;5.10;;;15.80;99.90;;;;;;5063592;28;20231;-80
2023/07/27 08:54:14;;;;;;;7.73;4.83;;;15.90;99.90;;;;;;5065260;28;20213;-80
2023/07/27 08:56:41;;;;;;;8.23;5.50;;;16.00;99.90;;;;;;5059820;28;20325;-80
2023/07/27 08:59:08;;;;;;;8.13;5.03;;;16.00;99.90;;;;;;5062165;28;20230;-81
2023/07/27 09:01:35;;;;;;;7.07;5.60;;;16.00;99.90;;;;;;5063609;28;20221;-82
2023/07/27 09:04:01;;;;;;;8.13;5.33;;;15.90;99.90;;;;;;5066494;28;20244;-80
2023/07/27 09:06:43;;;;;;;7.20;5.33;;;16.00;99.90;;;;;;5065755;28;20231;-80
2023/07/27 09:09:16;;;;;;;9.30;5.23;;;15.90;99.90;;;;;;5063580;28;20597;-79
2023/07/27 09:11:44;;;;;;;6.53;5.20;;;15.90;99.90;;;;;;5048655;28;20246;-79
2023/07/27 09:14:10;;;;;;;6.57;5.60;;;15.80;99.90;;;;;;5064366;28;20250;-79
2023/07/27 09:16:38;;;;;;;7.27;4.93;;;15.80;99.90;;;;;;5063388;28;20233;-79
2023/07/27 09:19:06;;;;;;;5.87;5.23;;;15.80;99.90;;;;;;5062994;28;20273;-79
2023/07/27 09:21:44;;;;;;;6.77;5.60;;;15.70;99.90;;;;;;5063563;28;20234;-79
2023/07/27 09:24:10;;;;;;;8.13;6.03;;;15.70;99.90;;;;;;5061492;28;20222;-80
2023/07/27 09:26:45;;;;;;;6.23;5.63;;;15.60;99.90;;;;;;5061333;28;20253;-79
2023/07/27 09:29:12;;;;;;;9.70;6.90;;;15.60;99.90;;;;;;5063997;28;20585;-80
2023/07/27 09:31:45;;;;;;;7.60;6.10;;;15.60;99.90;;;;;;5068938;28;20229;-79
2023/07/27 09:34:11;;;;;;;9.17;7.03;;;15.60;99.90;;;;;;5052784;28;20232;-79
2023/07/27 09:36:39;;;;;;;10.40;6.03;;;15.60;99.90;;;;;;5063136;28;20227;-79
2023/07/27 09:39:06;;;;;;;7.97;5.83;;;15.60;99.90;;;;;;5058010;28;20616;-80
2023/07/27 09:41:33;;;;;;;8.27;5.40;;;15.60;99.90;;;;;;5070985;28;20222;-79
2023/07/27 09:44:02;;;;;;;7.00;5.47;;;15.60;99.90;;;;;;5066587;28;20277;-79
2023/07/27 09:46:30;;;;;;;8.13;5.33;;;15.70;99.90;;;;;;5063373;28;20227;-79
2023/07/27 09:48:57;;;;;;;7.47;6.00;;;15.80;99.90;;;;;;5065064;28;20291;-79
2023/07/27 09:51:26;;;;;;;6.43;5.10;;;16.00;99.90;;;;;;5064047;28;20238;-79
2023/07/27 09:53:54;;;;;;;6.17;4.73;;;16.20;99.90;;;;;;5060835;28;20246;-79
2023/07/27 09:56:22;;;;;;;6.07;5.10;;;16.30;99.90;;;;;;5063626;28;20231;-81
2023/07/27 09:58:49;;;;;;;6.33;5.27;;;16.50;99.90;;;;;;5043791;28;20214;-80
2023/07/27 10:01:18;;;;;;;6.80;5.67;;;16.70;99.90;;;;;;5063879;28;20219;-80
2023/07/27 10:03:45;;;;;;;6.67;5.30;;;16.80;99.90;;;;;;5064200;28;20219;-80
2023/07/27 10:06:15;;;;;;;6.67;5.73;;;16.90;99.90;;;;;;5060625;28;20344;-80
2023/07/27 10:08:42;;;;;;;6.97;5.80;;;17.00;99.90;;;;;;5062228;28;20222;-80
2023/07/27 10:11:10;;;;;;;7.27;5.80;;;17.00;99.90;;;;;;5062257;28;20230;-79
2023/07/27 10:13:39;;;;;;;6.60;5.43;;;17.10;99.90;;;;;;5064452;28;20227;-80
2023/07/27 10:16:09;;;;;;;6.30;5.10;;;17.10;99.90;;;;;;5060573;28;20326;-80
2023/07/27 10:18:42;;;;;;;8.23;5.40;;;17.20;99.90;;;;;;5048330;28;20212;-79
2023/07/27 10:21:29;;;;;;;7.03;5.10;;;17.20;99.90;;;;;;5061262;28;20223;-79
2023/07/27 10:23:58;;;;;;;7.90;5.20;;;17.30;99.90;;;;;;5063343;28;20254;-79
2023/07/27 10:26:46;;;;;;;6.17;5.23;;;17.40;99.90;;;;;;5063039;28;20832;-80
2023/07/27 10:29:18;;;;;;;7.57;4.77;;;17.50;99.90;;;;;;5059847;28;20272;-81
2023/07/27 10:31:46;;;;;;;6.53;4.80;;;17.60;99.90;;;;;;5065228;28;20231;-81
2023/07/27 10:34:18;;;;;;;6.57;5.25;;;17.70;99.90;;;;;;5064556;28;20222;-80
2023/07/27 10:36:53;;;;;;;6.28;4.65;;;17.70;99.90;;;;;;5062365;28;20229;-80
2023/07/27 10:39:25;;;;;;;5.68;5.13;;;17.80;99.90;;;;;;5056446;28;20219;-80
2023/07/27 10:42:14;;;;;;;6.97;5.20;;;17.80;99.90;;;;;;5060796;28;20951;-80
2023/07/27 10:44:47;;;;;;;6.07;5.00;;;17.80;99.90;;;;;;5038236;28;20842;-80
2023/07/27 10:47:15;;;;;;;6.37;4.80;;;17.90;99.90;;;;;;5049030;28;20227;-80
2023/07/27 10:49:46;;;;;;;6.67;4.70;;;17.90;99.90;;;;;;5064551;28;20243;-80
2023/07/27 10:52:17;;;;;;;5.20;4.70;;;18.00;99.90;;;;;;5063097;28;20216;-79
2023/07/27 10:54:44;;;;;;;8.07;7.05;;;18.00;99.90;;;;;;5064148;28;20223;-80
2023/07/27 10:57:12;;;;;;;5.38;4.60;;;18.10;99.90;;;;;;5061674;28;20587;-79
2023/07/27 10:59:40;;;;;;;6.33;4.90;;;18.10;99.90;;;;;;5061782;28;20255;-80
2023/07/27 11:02:12;;;;;;;6.18;4.70;;;18.20;99.90;;;;;;5062990;28;20223;-79
2023/07/27 11:04:40;;;;;;;5.80;4.50;;;18.20;99.90;;;;;;5064423;28;20250;-80
2023/07/27 11:07:10;;;;;;;5.47;4.70;;;18.20;99.90;;;;;;5062513;28;20238;-80
2023/07/27 11:09:37;;;;;;;7.00;4.60;;;18.20;99.90;;;;;;5049077;28;20646;-80
2023/07/27 11:12:04;;;;;;;5.65;5.05;;;18.30;99.90;;;;;;5063153;28;20736;-80
2023/07/27 11:14:32;;;;;;;6.15;4.95;;;18.30;99.90;;;;;;5064337;28;20219;-80
2023/07/27 11:16:58;;;;;;;7.07;4.70;;;18.40;99.90;;;;;;5048076;28;20227;-82
2023/07/27 11:19:26;;;;;;;5.90;4.60;;;18.40;99.90;;;;;;5067691;28;20223;-80
2023/07/27 11:21:54;;;;;;;6.43;5.05;;;18.40;99.90;;;;;;5062923;28;20812;-79
2023/07/27 11:24:22;;;;;;;6.40;5.28;;;18.40;99.90;;;;;;5060277;28;20339;-79
2023/07/27 11:26:49;;;;;;;6.93;5.70;;;18.40;99.90;;;;;;5065470;28;20276;-79
2023/07/27 11:29:17;;;;;;;6.45;5.10;;;18.30;99.90;;;;;;5046981;28;20220;-80
2023/07/27 11:31:58;;;;;;;6.63;5.25;;;18.10;99.90;;;;;;5067627;28;20706;-80
2023/07/27 11:34:25;;;;;;;6.38;4.65;;;18.10;99.90;;;;;;5067594;28;20306;-79
2023/07/27 11:36:54;;;;;;;7.77;6.17;;;18.10;99.90;;;;;;5052392;28;20245;-79
2023/07/27 11:39:26;;;;;;;6.47;5.55;;;18.00;99.90;;;;;;5052368;28;20234;-80
2023/07/27 11:41:53;;;;;;;7.75;6.18;;;18.00;99.90;;;;;;5064263;28;20226;-79
2023/07/27 11:44:23;;;;;;;7.15;5.40;;;18.00;99.90;;;;;;5066276;28;20231;-81
2023/07/27 11:46:52;;;;;;;8.40;5.90;;;18.00;99.90;;;;;;5067053;28;20230;-80
2023/07/27 11:49:22;;;;;;;7.30;5.53;;;18.00;99.90;;;;;;5065109;28;20701;-81
2023/07/27 11:51:49;;;;;;;6.88;5.03;;;18.00;99.90;;;;;;5065364;28;20302;-80
2023/07/27 11:54:23;;;;;;;6.70;5.10;;;18.00;99.90;;;;;;5065343;28;20225;-79
2023/07/27 11:56:52;;;;;;;6.33;5.07;;;18.10;99.90;;;;;;5052309;28;20227;-79
2023/07/27 11:59:20;;;;;;;5.80;5.07;;;18.20;99.90;;;;;;5049217;28;20228;-80
2023/07/27 12:01:48;;;;;;;5.82;4.65;;;18.30;99.90;;;;;;5063382;28;20780;-79
2023/07/27 12:04:15;;;;;;;6.10;4.30;;;18.50;99.90;;;;;;5065895;28;20233;-80
2023/07/27 12:06:43;;;;;;;6.47;4.95;;;18.60;99.90;;;;;;5066132;28;20235;-80
2023/07/27 12:09:10;;;;;;;6.78;4.82;;;18.80;99.90;;;;;;5064809;28;20219;-80
2023/07/27 12:11:38;;;;;;;6.47;4.80;;;18.90;99.90;;;;;;5061596;28;20251;-80
2023/07/27 12:14:07;;;;;;;7.75;4.00;;;19.00;99.90;;;;;;5060662;28;20230;-80
2023/07/27 12:16:38;;;;;;;5.07;4.35;;;19.00;99.90;;;;;;5066267;28;20231;-81
2023/07/27 12:19:06;;;;;;;6.60;4.85;;;19.10;99.90;;;;;;5062359;28;20227;-80
2023/07/27 12:21:33;;;;;;;8.07;5.38;;;19.10;99.90;;;;;;5062847;28;20363;-79
2023/07/27 12:24:01;;;;;;;7.60;4.90;;;19.10;99.90;;;;;;5063521;28;20384;-81
2023/07/27 12:26:28;;;;;;;5.95;5.00;;;19.10;99.90;;;;;;5064434;28;20326;-82
2023/07/27 12:28:54;;;;;;;8.75;5.72;;;19.10;99.90;;;;;;5066053;28;20650;-80
2023/07/27 12:31:22;;;;;;;5.72;3.92;;;19.00;99.90;;;;;;5065639;28;20232;-80
2023/07/27 12:33:49;;;;;;;6.60;4.70;;;19.00;99.90;;;;;;5063945;28;20277;-80
2023/07/27 12:36:16;;;;;;;5.38;4.32;;;19.00;99.90;;;;;;5051371;28;20223;-81
2023/07/27 12:38:42;;;;;;;7.00;5.00;;;19.00;99.90;;;;;;5065018;28;20235;-80
2023/07/27 12:41:09;;;;;;;7.60;4.45;;;19.10;99.90;;;;;;5061916;28;20995;-82
2023/07/27 12:43:36;;;;;;;5.30;4.80;;;19.20;99.90;;;;;;5065011;28;20223;-80
2023/07/27 12:46:04;;;;;;;5.20;4.55;;;19.40;99.90;;;;;;5061542;28;20231;-80
2023/07/27 12:48:33;;;;;;;6.65;4.90;;;19.50;99.90;;;;;;5065009;28;20303;-80
2023/07/27 12:50:59;;;;;;;5.28;4.20;;;19.50;99.90;;;;;;5064487;28;20226;-80